TimeCST,TemperatureF,Dew PointF,Humidity,Sea Level PressureIn,VisibilityMPH,Wind Direction,Wind SpeedMPH,Gust SpeedMPH,PrecipitationIn,Events,Conditions,WindDirDegrees,DateUTC
12:53 AM,34.0,26.1,73,30.33,10.0,Calm,Calm,-,0.00,,Overcast,0,2014-01-25 06:53:00
1:53 AM,34.0,26.1,73,30.30,10.0,SW,3.5,-,0.00,Rain,Light Rain,220,2014-01-25 07:53:00
2:53 AM,34.0,28.0,79,30.28,10.0,Calm,Calm,-,0.00,,Overcast,0,2014-01-25 08:53:00
3:28 AM,35.1,28.9,78,30.26,10.0,Calm,Calm,-,N/A,,Overcast,0,2014-01-25 09:28:00
3:39 AM,35.1,28.9,78,30.26,10.0,West,3.5,-,N/A,,Overcast,270,2014-01-25 09:39:00
3:53 AM,35.1,30.0,82,30.26,10.0,Calm,Calm,-,N/A,,Overcast,0,2014-01-25 09:53:00
4:30 AM,36.0,30.9,82,30.25,10.0,Calm,Calm,-,N/A,,Overcast,0,2014-01-25 10:30:00
4:53 AM,36.0,30.9,82,30.25,10.0,Calm,Calm,-,N/A,,Overcast,0,2014-01-25 10:53:00
5:53 AM,36.0,33.1,89,30.25,9.0,Calm,Calm,-,N/A,,Overcast,0,2014-01-25 11:53:00
6:34 AM,37.0,33.1,86,30.24,10.0,Calm,Calm,-,N/A,,Overcast,0,2014-01-25 12:34:00
6:53 AM,37.0,34.0,89,30.24,10.0,Calm,Calm,-,N/A,,Overcast,0,2014-01-25 12:53:00
7:27 AM,37.9,35.1,89,30.23,10.0,Calm,Calm,-,N/A,,Overcast,0,2014-01-25 13:27:00
7:48 AM,39.2,35.6,87,30.23,10.0,Variable,3.5,-,N/A,,Overcast,0,2014-01-25 13:48:00
7:53 AM,39.0,35.1,86,30.23,10.0,WNW,3.5,-,N/A,,Overcast,300,2014-01-25 13:53:00
8:53 AM,42.1,37.0,82,30.23,10.0,WSW,5.8,-,N/A,,Overcast,250,2014-01-25 14:53:00
9:53 AM,44.1,36.0,73,30.22,10.0,WSW,8.1,-,N/A,,Overcast,240,2014-01-25 15:53:00
10:27 AM,48.0,35.1,61,30.20,10.0,Variable,4.6,-,N/A,,Scattered Clouds,0,2014-01-25 16:27:00
10:53 AM,51.1,35.1,54,30.19,10.0,Variable,4.6,-,N/A,,Clear,0,2014-01-25 16:53:00
11:53 AM,55.0,35.1,47,30.15,10.0,SW,5.8,-,N/A,,Clear,230,2014-01-25 17:53:00
12:53 PM,52.0,39.0,61,30.10,10.0,SSE,10.4,-,0.00,Rain,Light Rain,150,2014-01-25 18:53:00
1:53 PM,54.0,41.0,62,30.05,10.0,SSE,6.9,-,0.00,,Clear,150,2014-01-25 19:53:00
2:53 PM,60.1,34.0,38,30.03,10.0,SW,9.2,17.3,N/A,,Clear,220,2014-01-25 20:53:00
3:53 PM,60.1,34.0,38,30.03,10.0,Variable,6.9,-,N/A,,Clear,0,2014-01-25 21:53:00
4:53 PM,57.0,34.0,42,30.03,10.0,West,3.5,-,N/A,,Clear,280,2014-01-25 22:53:00
5:53 PM,51.1,37.0,59,30.05,10.0,SW,5.8,-,N/A,,Clear,230,2014-01-25 23:53:00
6:53 PM,46.9,37.9,71,30.06,10.0,SSW,4.6,-,N/A,,Clear,210,2014-01-26 00:53:00
7:53 PM,45.0,37.9,76,30.06,10.0,SW,3.5,-,N/A,,Clear,220,2014-01-26 01:53:00
8:53 PM,41.0,37.0,86,30.09,10.0,Calm,Calm,-,N/A,,Clear,0,2014-01-26 02:53:00
9:53 PM,43.0,37.9,82,30.10,10.0,WSW,6.9,-,N/A,,Clear,250,2014-01-26 03:53:00
10:53 PM,43.0,37.9,82,30.09,10.0,WSW,6.9,-,N/A,,Clear,250,2014-01-26 04:53:00
11:53 PM,42.1,37.0,82,30.08,10.0,West,6.9,-,N/A,,Clear,260,2014-01-26 05:53:00